sensor_id;sensor_type;location;lat;lon;timestamp;temperature;humidity
1594;DHT22;790;47.000;16.084;2023-09-19T00:00:56;19.50;99.90
1594;DHT22;790;47.000;16.084;2023-09-19T00:03:24;19.50;99.90
1594;DHT22;790;47.000;16.084;2023-09-19T00:05:53;19.50;99.90
1594;DHT22;790;47.000;16.084;2023-09-19T00:08:21;19.60;99.90
1594;DHT22;790;47.000;16.084;2023-09-19T00:10:50;19.50;99.90
1594;DHT22;790;47.000;16.084;2023-09-19T00:13:19;19.50;99.90
1594;DHT22;790;47.000;16.084;2023-09-19T00:15:47;19.40;99.90
1594;DHT22;790;47.000;16.084;2023-09-19T00:18:16;19.40;99.90
1594;DHT22;790;47.000;16.084;2023-09-19T00:20:43;19.40;99.90
1594;DHT22;790;47.000;16.084;2023-09-19T00:23:14;19.40;99.90
1594;DHT22;790;47.000;16.084;2023-09-19T00:25:42;19.40;99.90
1594;DHT22;790;47.000;16.084;2023-09-19T00:28:09;19.40;99.90
1594;DHT22;790;47.000;16.084;2023-09-19T00:30:37;19.40;99.90
1594;DHT22;790;47.000;16.084;2023-09-19T00:33:05;19.40;99.90
1594;DHT22;790;47.000;16.084;2023-09-19T00:35:33;19.40;99.90
1594;DHT22;790;47.000;16.084;2023-09-19T00:38:00;19.40;99.90
1594;DHT22;790;47.000;16.084;2023-09-19T00:40:30;19.40;99.90
1594;DHT22;790;47.000;16.084;2023-09-19T00:42:58;19.40;99.90
1594;DHT22;790;47.000;16.084;2023-09-19T00:45:27;19.30;99.90
1594;DHT22;790;47.000;16.084;2023-09-19T00:47:54;19.30;99.90
1594;DHT22;790;47.000;16.084;2023-09-19T00:50:24;19.30;99.90
1594;DHT22;790;47.000;16.084;2023-09-19T00:52:54;19.40;99.90
1594;DHT22;790;47.000;16.084;2023-09-19T00:55:24;19.40;99.90
1594;DHT22;790;47.000;16.084;2023-09-19T00:57:55;19.50;99.90
1594;DHT22;790;47.000;16.084;2023-09-19T01:00:23;19.40;99.90
1594;DHT22;790;47.000;16.084;2023-09-19T01:02:50;19.50;99.90
1594;DHT22;790;47.000;16.084;2023-09-19T01:05:17;19.50;99.90
1594;DHT22;790;47.000;16.084;2023-09-19T01:07:45;19.50;99.90
1594;DHT22;790;47.000;16.084;2023-09-19T01:10:16;19.50;99.90
1594;DHT22;790;47.000;16.084;2023-09-19T01:12:51;19.50;99.90
1594;DHT22;790;47.000;16.084;2023-09-19T01:15:29;19.50;99.90
1594;DHT22;790;47.000;16.084;2023-09-19T01:18:09;19.50;99.90
1594;DHT22;790;47.000;16.084;2023-09-19T01:20:43;19.50;99.90
1594;DHT22;790;47.000;16.084;2023-09-19T01:23:19;19.60;99.90
1594;DHT22;790;47.000;16.084;2023-09-19T01:29:07;19.50;99.90
1594;DHT22;790;47.000;16.084;2023-09-19T01:31:43;19.60;99.90
1594;DHT22;790;47.000;16.084;2023-09-19T01:34:11;19.60;99.90
1594;DHT22;790;47.000;16.084;2023-09-19T01:36:38;19.50;99.90
1594;DHT22;790;47.000;16.084;2023-09-19T01:39:07;19.40;99.90
1594;DHT22;790;47.000;16.084;2023-09-19T01:41:45;19.40;99.90
1594;DHT22;790;47.000;16.084;2023-09-19T01:44:19;19.30;99.90
1594;DHT22;790;47.000;16.084;2023-09-19T01:46:50;19.40;99.90
1594;DHT22;790;47.000;16.084;2023-09-19T01:49:25;19.50;99.90
1594;DHT22;790;47.000;16.084;2023-09-19T01:52:01;19.50;99.90
1594;DHT22;790;47.000;16.084;2023-09-19T01:54:33;19.50;99.90
1594;DHT22;790;47.000;16.084;2023-09-19T01:57:09;19.50;99.90
1594;DHT22;790;47.000;16.084;2023-09-19T01:59:43;19.50;99.90
1594;DHT22;790;47.000;16.084;2023-09-19T02:02:14;19.60;99.90
1594;DHT22;790;47.000;16.084;2023-09-19T02:04:43;19.60;99.90
1594;DHT22;790;47.000;16.084;2023-09-19T02:07:10;19.70;99.90
1594;DHT22;790;47.000;16.084;2023-09-19T02:09:37;19.70;99.90
1594;DHT22;790;47.000;16.084;2023-09-19T02:12:05;19.80;99.90
1594;DHT22;790;47.000;16.084;2023-09-19T02:14:33;19.80;99.90
1594;DHT22;790;47.000;16.084;2023-09-19T02:17:01;19.70;99.90
1594;DHT22;790;47.000;16.084;2023-09-19T02:19:32;19.70;99.90
1594;DHT22;790;47.000;16.084;2023-09-19T02:22:00;19.70;99.90
1594;DHT22;790;47.000;16.084;2023-09-19T02:24:29;19.70;99.90
1594;DHT22;790;47.000;16.084;2023-09-19T02:26:56;19.70;99.90
1594;DHT22;790;47.000;16.084;2023-09-19T02:29:25;19.70;99.90
1594;DHT22;790;47.000;16.084;2023-09-19T02:31:52;19.70;99.90
1594;DHT22;790;47.000;16.084;2023-09-19T02:34:21;19.60;99.90
1594;DHT22;790;47.000;16.084;2023-09-19T02:36:52;19.70;99.90
1594;DHT22;790;47.000;16.084;2023-09-19T02:39:21;19.60;99.90
1594;DHT22;790;47.000;16.084;2023-09-19T02:41:49;19.60;99.90
1594;DHT22;790;47.000;16.084;2023-09-19T02:44:16;19.60;99.90
1594;DHT22;790;47.000;16.084;2023-09-19T02:46:46;19.60;99.90
1594;DHT22;790;47.000;16.084;2023-09-19T02:49:13;19.60;99.90
1594;DHT22;790;47.000;16.084;2023-09-19T02:51:41;19.60;99.90
1594;DHT22;790;47.000;16.084;2023-09-19T02:54:10;19.60;99.90
1594;DHT22;790;47.000;16.084;2023-09-19T02:56:37;19.60;99.90
1594;DHT22;790;47.000;16.084;2023-09-19T02:59:05;19.60;99.90
1594;DHT22;790;47.000;16.084;2023-09-19T03:01:33;19.60;99.90
1594;DHT22;790;47.000;16.084;2023-09-19T03:04:00;19.60;99.90
1594;DHT22;790;47.000;16.084;2023-09-19T03:06:28;19.60;99.90
1594;DHT22;790;47.000;16.084;2023-09-19T03:08:56;19.70;99.90
1594;DHT22;790;47.000;16.084;2023-09-19T03:11:27;19.70;99.90
1594;DHT22;790;47.000;16.084;2023-09-19T03:13:54;19.70;99.90
1594;DHT22;790;47.000;16.084;2023-09-19T03:16:23;19.70;99.90
1594;DHT22;790;47.000;16.084;2023-09-19T03:18:51;19.60;99.90
1594;DHT22;790;47.000;16.084;2023-09-19T03:21:18;19.60;99.90
1594;DHT22;790;47.000;16.084;2023-09-19T03:23:45;19.50;99.90
1594;DHT22;790;47.000;16.084;2023-09-19T03:26:12;19.60;99.90
1594;DHT22;790;47.000;16.084;2023-09-19T03:28:44;19.60;99.90
1594;DHT22;790;47.000;16.084;2023-09-19T03:31:11;19.60;99.90
1594;DHT22;790;47.000;16.084;2023-09-19T03:33:39;19.60;99.90
1594;DHT22;790;47.000;16.084;2023-09-19T03:36:06;19.60;99.90
1594;DHT22;790;47.000;16.084;2023-09-19T03:38:34;19.60;99.90
1594;DHT22;790;47.000;16.084;2023-09-19T03:41:01;19.70;99.90
1594;DHT22;790;47.000;16.084;2023-09-19T03:43:28;19.60;99.90
1594;DHT22;790;47.000;16.084;2023-09-19T03:46:01;19.60;99.90
1594;DHT22;790;47.000;16.084;2023-09-19T03:48:29;19.60;99.90
1594;DHT22;790;47.000;16.084;2023-09-19T03:50:56;19.60;99.90
1594;DHT22;790;47.000;16.084;2023-09-19T03:53:23;19.70;99.90
1594;DHT22;790;47.000;16.084;2023-09-19T03:55:50;19.70;99.90
1594;DHT22;790;47.000;16.084;2023-09-19T03:58:17;19.70;99.90
1594;DHT22;790;47.000;16.084;2023-09-19T04:00:44;19.70;99.90
1594;DHT22;790;47.000;16.084;2023-09-19T04:03:13;19.70;99.90
1594;DHT22;790;47.000;16.084;2023-09-19T04:05:45;19.70;99.90
1594;DHT22;790;47.000;16.084;2023-09-19T04:08:13;19.70;99.90
1594;DHT22;790;47.000;16.084;2023-09-19T04:10:42;19.60;99.90
1594;DHT22;790;47.000;16.084;2023-09-19T04:13:10;19.60;99.90
1594;DHT22;790;47.000;16.084;2023-09-19T04:15:37;19.70;99.90
1594;DHT22;790;47.000;16.084;2023-09-19T04:18:06;19.70;99.90
1594;DHT22;790;47.000;16.084;2023-09-19T04:20:35;19.70;99.90
1594;DHT22;790;47.000;16.084;2023-09-19T04:23:02;19.70;99.90
1594;DHT22;790;47.000;16.084;2023-09-19T04:25:30;19.70;99.90
1594;DHT22;790;47.000;16.084;2023-09-19T04:27:57;19.70;99.90
1594;DHT22;790;47.000;16.084;2023-09-19T04:30:24;19.70;99.90
1594;DHT22;790;47.000;16.084;2023-09-19T04:32:52;19.70;99.90
1594;DHT22;790;47.000;16.084;2023-09-19T04:35:19;19.70;99.90
1594;DHT22;790;47.000;16.084;2023-09-19T04:37:48;19.70;99.90
1594;DHT22;790;47.000;16.084;2023-09-19T04:40:17;19.70;99.90
1594;DHT22;790;47.000;16.084;2023-09-19T04:42:44;19.70;99.90
1594;DHT22;790;47.000;16.084;2023-09-19T04:45:12;19.70;99.90
1594;DHT22;790;47.000;16.084;2023-09-19T04:47:39;19.70;99.90
1594;DHT22;790;47.000;16.084;2023-09-19T04:50:08;19.70;99.90
1594;DHT22;790;47.000;16.084;2023-09-19T04:52:39;19.70;99.90
1594;DHT22;790;47.000;16.084;2023-09-19T04:55:10;19.70;99.90
1594;DHT22;790;47.000;16.084;2023-09-19T04:57:43;19.70;99.90
1594;DHT22;790;47.000;16.084;2023-09-19T05:00:12;19.60;99.90
1594;DHT22;790;47.000;16.084;2023-09-19T05:02:41;19.60;99.90
1594;DHT22;790;47.000;16.084;2023-09-19T05:05:09;19.60;99.90
1594;DHT22;790;47.000;16.084;2023-09-19T05:07:37;19.60;99.90
1594;DHT22;790;47.000;16.084;2023-09-19T05:10:05;19.60;99.90
1594;DHT22;790;47.000;16.084;2023-09-19T05:12:34;19.60;99.90
1594;DHT22;790;47.000;16.084;2023-09-19T05:15:01;19.70;99.90
1594;DHT22;790;47.000;16.084;2023-09-19T05:17:29;19.70;99.90
1594;DHT22;790;47.000;16.084;2023-09-19T05:19:57;19.70;99.90
1594;DHT22;790;47.000;16.084;2023-09-19T05:22:27;19.70;99.90
1594;DHT22;790;47.000;16.084;2023-09-19T05:24:54;19.70;99.90
1594;DHT22;790;47.000;16.084;2023-09-19T05:27:21;19.70;99.90
1594;DHT22;790;47.000;16.084;2023-09-19T05:29:50;19.80;99.90
1594;DHT22;790;47.000;16.084;2023-09-19T05:32:18;19.80;99.90
1594;DHT22;790;47.000;16.084;2023-09-19T05:34:46;19.70;99.90
1594;DHT22;790;47.000;16.084;2023-09-19T05:37:13;19.70;99.90
1594;DHT22;790;47.000;16.084;2023-09-19T05:39:42;19.70;99.90
1594;DHT22;790;47.000;16.084;2023-09-19T05:42:09;19.70;99.90
1594;DHT22;790;47.000;16.084;2023-09-19T05:44:36;19.70;99.90
1594;DHT22;790;47.000;16.084;2023-09-19T05:47:05;19.70;99.90
1594;DHT22;790;47.000;16.084;2023-09-19T05:49:34;19.80;99.90
1594;DHT22;790;47.000;16.084;2023-09-19T05:52:04;19.70;99.90
1594;DHT22;790;47.000;16.084;2023-09-19T05:54:32;19.70;99.90
1594;DHT22;790;47.000;16.084;2023-09-19T05:57:00;19.70;99.90
1594;DHT22;790;47.000;16.084;2023-09-19T05:59:28;19.70;99.90
1594;DHT22;790;47.000;16.084;2023-09-19T06:01:55;19.70;99.90
1594;DHT22;790;47.000;16.084;2023-09-19T06:04:24;19.70;99.90
1594;DHT22;790;47.000;16.084;2023-09-19T06:06:51;19.70;99.90
1594;DHT22;790;47.000;16.084;2023-09-19T06:09:18;19.70;99.90
1594;DHT22;790;47.000;16.084;2023-09-19T06:11:45;19.70;99.90
1594;DHT22;790;47.000;16.084;2023-09-19T06:14:12;19.70;99.90
1594;DHT22;790;47.000;16.084;2023-09-19T06:16:40;19.70;99.90
1594;DHT22;790;47.000;16.084;2023-09-19T06:19:08;19.80;99.90
1594;DHT22;790;47.000;16.084;2023-09-19T06:21:37;19.80;99.90
1594;DHT22;790;47.000;16.084;2023-09-19T06:24:05;19.80;99.90
1594;DHT22;790;47.000;16.084;2023-09-19T06:26:32;19.90;99.90
1594;DHT22;790;47.000;16.084;2023-09-19T06:28:59;19.90;99.90
1594;DHT22;790;47.000;16.084;2023-09-19T06:31:26;19.80;99.90
1594;DHT22;790;47.000;16.084;2023-09-19T06:33:53;19.80;99.90
1594;DHT22;790;47.000;16.084;2023-09-19T06:36:20;19.80;99.90
1594;DHT22;790;47.000;16.084;2023-09-19T06:38:49;19.90;99.90
1594;DHT22;790;47.000;16.084;2023-09-19T06:41:18;19.90;99.90
1594;DHT22;790;47.000;16.084;2023-09-19T06:43:45;19.90;99.90
1594;DHT22;790;47.000;16.084;2023-09-19T06:46:12;20.00;99.90
1594;DHT22;790;47.000;16.084;2023-09-19T06:48:39;20.00;99.90
1594;DHT22;790;47.000;16.084;2023-09-19T06:51:07;20.00;99.90
1594;DHT22;790;47.000;16.084;2023-09-19T06:53:35;20.00;99.90
1594;DHT22;790;47.000;16.084;2023-09-19T06:56:04;20.00;99.90
1594;DHT22;790;47.000;16.084;2023-09-19T06:58:32;20.00;99.90
1594;DHT22;790;47.000;16.084;2023-09-19T07:00:59;20.00;99.90
1594;DHT22;790;47.000;16.084;2023-09-19T07:03:27;20.00;99.90
1594;DHT22;790;47.000;16.084;2023-09-19T07:05:54;20.00;99.90
1594;DHT22;790;47.000;16.084;2023-09-19T07:08:21;20.00;99.90
1594;DHT22;790;47.000;16.084;2023-09-19T07:10:48;20.00;99.90
1594;DHT22;790;47.000;16.084;2023-09-19T07:13:21;20.00;99.90
1594;DHT22;790;47.000;16.084;2023-09-19T07:15:48;20.10;99.90
1594;DHT22;790;47.000;16.084;2023-09-19T07:18:16;20.10;99.90
1594;DHT22;790;47.000;16.084;2023-09-19T07:20:43;20.10;99.90
1594;DHT22;790;47.000;16.084;2023-09-19T07:23:14;20.00;99.90
1594;DHT22;790;47.000;16.084;2023-09-19T07:25:43;20.00;99.90
1594;DHT22;790;47.000;16.084;2023-09-19T07:28:12;20.00;99.90
1594;DHT22;790;47.000;16.084;2023-09-19T07:30:41;20.00;99.90
1594;DHT22;790;47.000;16.084;2023-09-19T07:33:08;20.00;99.90
1594;DHT22;790;47.000;16.084;2023-09-19T07:35:37;20.00;99.90
1594;DHT22;790;47.000;16.084;2023-09-19T07:38:06;20.00;99.90
1594;DHT22;790;47.000;16.084;2023-09-19T07:40:33;20.00;99.90
1594;DHT22;790;47.000;16.084;2023-09-19T07:43:00;20.00;99.90
1594;DHT22;790;47.000;16.084;2023-09-19T07:45:30;20.00;99.90
1594;DHT22;790;47.000;16.084;2023-09-19T07:47:58;20.10;99.90
1594;DHT22;790;47.000;16.084;2023-09-19T07:50:27;20.10;99.90
1594;DHT22;790;47.000;16.084;2023-09-19T07:52:54;20.20;99.90
1594;DHT22;790;47.000;16.084;2023-09-19T07:55:22;20.30;99.90
1594;DHT22;790;47.000;16.084;2023-09-19T07:57:51;20.30;99.90
1594;DHT22;790;47.000;16.084;2023-09-19T08:00:18;20.30;99.90
1594;DHT22;790;47.000;16.084;2023-09-19T08:02:45;20.30;99.90
1594;DHT22;790;47.000;16.084;2023-09-19T08:05:14;20.30;99.90
1594;DHT22;790;47.000;16.084;2023-09-19T08:07:44;20.30;99.90
1594;DHT22;790;47.000;16.084;2023-09-19T08:10:15;20.40;99.90
1594;DHT22;790;47.000;16.084;2023-09-19T08:12:46;20.40;99.90
1594;DHT22;790;47.000;16.084;2023-09-19T08:15:13;20.50;99.90
1594;DHT22;790;47.000;16.084;2023-09-19T08:17:41;20.60;99.90
1594;DHT22;790;47.000;16.084;2023-09-19T08:20:09;20.60;99.90
1594;DHT22;790;47.000;16.084;2023-09-19T08:22:46;20.70;99.90
1594;DHT22;790;47.000;16.084;2023-09-19T08:25:15;20.70;99.90
1594;DHT22;790;47.000;16.084;2023-09-19T08:27:44;20.80;99.90
1594;DHT22;790;47.000;16.084;2023-09-19T08:30:14;20.80;99.90
1594;DHT22;790;47.000;16.084;2023-09-19T08:32:41;20.90;99.90
1594;DHT22;790;47.000;16.084;2023-09-19T08:35:09;21.00;99.90
1594;DHT22;790;47.000;16.084;2023-09-19T08:37:36;21.00;99.90
1594;DHT22;790;47.000;16.084;2023-09-19T08:40:06;21.10;99.90
1594;DHT22;790;47.000;16.084;2023-09-19T08:42:48;21.10;99.90
1594;DHT22;790;47.000;16.084;2023-09-19T08:45:16;21.20;99.90
1594;DHT22;790;47.000;16.084;2023-09-19T08:47:46;21.20;99.90
1594;DHT22;790;47.000;16.084;2023-09-19T08:50:19;21.20;99.90
1594;DHT22;790;47.000;16.084;2023-09-19T08:52:51;21.10;99.90
1594;DHT22;790;47.000;16.084;2023-09-19T08:55:26;21.20;99.90
1594;DHT22;790;47.000;16.084;2023-09-19T08:57:59;21.20;99.90
1594;DHT22;790;47.000;16.084;2023-09-19T09:00:28;21.20;99.90
1594;DHT22;790;47.000;16.084;2023-09-19T09:02:56;21.10;99.90
1594;DHT22;790;47.000;16.084;2023-09-19T09:05:24;21.10;99.90
1594;DHT22;790;47.000;16.084;2023-09-19T09:07:52;21.20;99.90
1594;DHT22;790;47.000;16.084;2023-09-19T09:10:22;21.30;99.90
1594;DHT22;790;47.000;16.084;2023-09-19T09:12:51;21.40;99.90
1594;DHT22;790;47.000;16.084;2023-09-19T09:15:19;21.40;99.90
1594;DHT22;790;47.000;16.084;2023-09-19T09:17:47;21.30;99.90
1594;DHT22;790;47.000;16.084;2023-09-19T09:20:16;21.40;99.90
1594;DHT22;790;47.000;16.084;2023-09-19T09:22:51;21.50;99.90
1594;DHT22;790;47.000;16.084;2023-09-19T09:25:19;21.50;99.90
1594;DHT22;790;47.000;16.084;2023-09-19T09:28:01;21.50;99.90
1594;DHT22;790;47.000;16.084;2023-09-19T09:30:34;21.50;99.90
1594;DHT22;790;47.000;16.084;2023-09-19T09:33:09;21.60;99.90
1594;DHT22;790;47.000;16.084;2023-09-19T09:35:46;21.80;99.90
1594;DHT22;790;47.000;16.084;2023-09-19T09:38:13;21.90;99.90
1594;DHT22;790;47.000;16.084;2023-09-19T09:40:46;21.90;99.90
1594;DHT22;790;47.000;16.084;2023-09-19T09:43:30;22.00;99.90
1594;DHT22;790;47.000;16.084;2023-09-19T09:46:14;22.10;99.90
1594;DHT22;790;47.000;16.084;2023-09-19T09:49:10;22.20;99.90
1594;DHT22;790;47.000;16.084;2023-09-19T09:51:45;22.30;99.90
1594;DHT22;790;47.000;16.084;2023-09-19T09:54:15;22.40;99.90
1594;DHT22;790;47.000;16.084;2023-09-19T09:56:53;22.50;99.90
1594;DHT22;790;47.000;16.084;2023-09-19T09:59:50;22.60;99.90
1594;DHT22;790;47.000;16.084;2023-09-19T10:02:20;22.70;99.90
1594;DHT22;790;47.000;16.084;2023-09-19T10:04:56;22.80;99.90
1594;DHT22;790;47.000;16.084;2023-09-19T10:07:35;23.00;99.90
1594;DHT22;790;47.000;16.084;2023-09-19T10:10:07;22.90;99.90
1594;DHT22;790;47.000;16.084;2023-09-19T10:12:45;22.90;99.90
1594;DHT22;790;47.000;16.084;2023-09-19T10:15:16;22.80;99.90
1594;DHT22;790;47.000;16.084;2023-09-19T10:17:46;22.90;99.90
1594;DHT22;790;47.000;16.084;2023-09-19T10:20:14;23.00;99.90
1594;DHT22;790;47.000;16.084;2023-09-19T10:23:04;23.10;99.90
1594;DHT22;790;47.000;16.084;2023-09-19T10:25:36;23.10;99.90
1594;DHT22;790;47.000;16.084;2023-09-19T10:28:06;23.30;99.90
1594;DHT22;790;47.000;16.084;2023-09-19T10:30:40;23.30;99.90
1594;DHT22;790;47.000;16.084;2023-09-19T10:33:11;23.40;99.90
1594;DHT22;790;47.000;16.084;2023-09-19T10:35:41;23.60;99.90
1594;DHT22;790;47.000;16.084;2023-09-19T10:38:10;23.80;99.90
1594;DHT22;790;47.000;16.084;2023-09-19T10:40:38;23.90;99.90
1594;DHT22;790;47.000;16.084;2023-09-19T10:43:12;24.00;99.90
1594;DHT22;790;47.000;16.084;2023-09-19T10:45:44;24.10;99.90
1594;DHT22;790;47.000;16.084;2023-09-19T10:48:12;24.10;99.90
1594;DHT22;790;47.000;16.084;2023-09-19T10:50:46;24.20;99.90
1594;DHT22;790;47.000;16.084;2023-09-19T10:53:16;24.30;99.90
1594;DHT22;790;47.000;16.084;2023-09-19T10:55:49;24.40;99.90
1594;DHT22;790;47.000;16.084;2023-09-19T10:58:28;24.40;99.90
1594;DHT22;790;47.000;16.084;2023-09-19T11:00:58;24.50;99.90
1594;DHT22;790;47.000;16.084;2023-09-19T11:03:38;24.50;99.90
1594;DHT22;790;47.000;16.084;2023-09-19T11:06:11;24.50;99.90
1594;DHT22;790;47.000;16.084;2023-09-19T11:09:01;24.50;99.90
1594;DHT22;790;47.000;16.084;2023-09-19T11:11:46;24.50;99.90
1594;DHT22;790;47.000;16.084;2023-09-19T11:14:38;24.50;99.90
1594;DHT22;790;47.000;16.084;2023-09-19T11:20:21;24.50;99.90
1594;DHT22;790;47.000;16.084;2023-09-19T11:23:24;24.50;99.90
1594;DHT22;790;47.000;16.084;2023-09-19T11:25:54;24.60;99.90
1594;DHT22;790;47.000;16.084;2023-09-19T11:28:31;24.60;99.90
1594;DHT22;790;47.000;16.084;2023-09-19T11:30:58;24.50;99.90
1594;DHT22;790;47.000;16.084;2023-09-19T11:33:27;24.50;99.90
1594;DHT22;790;47.000;16.084;2023-09-19T11:36:01;24.60;99.90
1594;DHT22;790;47.000;16.084;2023-09-19T11:41:40;24.70;99.90
1594;DHT22;790;47.000;16.084;2023-09-19T11:44:33;24.60;99.90
1594;DHT22;790;47.000;16.084;2023-09-19T11:47:05;24.60;99.90
1594;DHT22;790;47.000;16.084;2023-09-19T11:49:32;24.60;99.90
1594;DHT22;790;47.000;16.084;2023-09-19T11:52:04;24.60;99.90
1594;DHT22;790;47.000;16.084;2023-09-19T11:54:35;24.60;99.90
1594;DHT22;790;47.000;16.084;2023-09-19T11:57:06;24.70;99.90
1594;DHT22;790;47.000;16.084;2023-09-19T11:59:38;24.70;99.90
1594;DHT22;790;47.000;16.084;2023-09-19T12:02:06;24.80;99.90
1594;DHT22;790;47.000;16.084;2023-09-19T12:04:35;24.70;99.90
1594;DHT22;790;47.000;16.084;2023-09-19T12:07:07;24.70;99.90
1594;DHT22;790;47.000;16.084;2023-09-19T12:09:39;24.70;99.90
1594;DHT22;790;47.000;16.084;2023-09-19T12:12:10;24.70;99.90
1594;DHT22;790;47.000;16.084;2023-09-19T12:14:41;24.80;99.90
1594;DHT22;790;47.000;16.084;2023-09-19T12:17:09;24.90;99.90
1594;DHT22;790;47.000;16.084;2023-09-19T12:19:38;24.90;99.90
1594;DHT22;790;47.000;16.084;2023-09-19T12:22:07;25.00;99.90
1594;DHT22;790;47.000;16.084;2023-09-19T12:24:34;25.00;99.90
1594;DHT22;790;47.000;16.084;2023-09-19T12:27:05;25.00;99.90
1594;DHT22;790;47.000;16.084;2023-09-19T12:29:41;25.00;99.90
1594;DHT22;790;47.000;16.084;2023-09-19T12:32:08;25.10;99.90
1594;DHT22;790;47.000;16.084;2023-09-19T12:34:36;25.00;99.90
1594;DHT22;790;47.000;16.084;2023-09-19T12:37:10;25.00;99.90
1594;DHT22;790;47.000;16.084;2023-09-19T12:39:47;24.90;99.90
1594;DHT22;790;47.000;16.084;2023-09-19T12:42:18;24.80;99.90
1594;DHT22;790;47.000;16.084;2023-09-19T12:44:47;24.80;99.90
1594;DHT22;790;47.000;16.084;2023-09-19T12:47:16;24.80;99.90
1594;DHT22;790;47.000;16.084;2023-09-19T12:50:13;24.90;99.90
1594;DHT22;790;47.000;16.084;2023-09-19T12:52:45;25.00;99.90
1594;DHT22;790;47.000;16.084;2023-09-19T12:55:21;25.10;99.90
1594;DHT22;790;47.000;16.084;2023-09-19T12:58:02;25.10;99.90
1594;DHT22;790;47.000;16.084;2023-09-19T13:00:36;25.20;99.90
1594;DHT22;790;47.000;16.084;2023-09-19T13:03:14;25.20;99.90
1594;DHT22;790;47.000;16.084;2023-09-19T13:05:48;25.20;99.90
1594;DHT22;790;47.000;16.084;2023-09-19T13:08:21;25.20;99.90
1594;DHT22;790;47.000;16.084;2023-09-19T13:11:06;25.20;99.90
1594;DHT22;790;47.000;16.084;2023-09-19T13:13:36;25.20;99.90
1594;DHT22;790;47.000;16.084;2023-09-19T13:16:04;25.20;99.90
1594;DHT22;790;47.000;16.084;2023-09-19T13:18:45;25.20;99.90
1594;DHT22;790;47.000;16.084;2023-09-19T13:21:13;25.30;99.90
1594;DHT22;790;47.000;16.084;2023-09-19T13:23:52;25.40;99.90
1594;DHT22;790;47.000;16.084;2023-09-19T13:26:20;25.40;99.90
1594;DHT22;790;47.000;16.084;2023-09-19T13:28:48;25.30;99.90
1594;DHT22;790;47.000;16.084;2023-09-19T13:31:16;25.40;99.90
1594;DHT22;790;47.000;16.084;2023-09-19T13:33:44;25.40;99.90
1594;DHT22;790;47.000;16.084;2023-09-19T13:36:12;25.60;99.90
1594;DHT22;790;47.000;16.084;2023-09-19T13:38:40;25.70;99.90
1594;DHT22;790;47.000;16.084;2023-09-19T13:41:10;25.70;99.90
1594;DHT22;790;47.000;16.084;2023-09-19T13:43:37;25.70;99.90
1594;DHT22;790;47.000;16.084;2023-09-19T13:46:05;25.80;99.90
1594;DHT22;790;47.000;16.084;2023-09-19T13:48:33;25.90;99.90
1594;DHT22;790;47.000;16.084;2023-09-19T13:51:02;25.90;99.90
1594;DHT22;790;47.000;16.084;2023-09-19T13:53:29;26.00;99.90
1594;DHT22;790;47.000;16.084;2023-09-19T13:55:56;26.10;99.90
1594;DHT22;790;47.000;16.084;2023-09-19T13:58:24;26.10;99.90
1594;DHT22;790;47.000;16.084;2023-09-19T14:00:53;26.10;99.90
1594;DHT22;790;47.000;16.084;2023-09-19T14:03:21;26.10;99.90
1594;DHT22;790;47.000;16.084;2023-09-19T14:05:49;26.10;99.90
1594;DHT22;790;47.000;16.084;2023-09-19T14:08:17;26.20;99.90
1594;DHT22;790;47.000;16.084;2023-09-19T14:10:44;26.10;99.90
1594;DHT22;790;47.000;16.084;2023-09-19T14:13:11;26.10;99.90
1594;DHT22;790;47.000;16.084;2023-09-19T14:15:42;26.10;99.90
1594;DHT22;790;47.000;16.084;2023-09-19T14:18:09;26.10;99.90
1594;DHT22;790;47.000;16.084;2023-09-19T14:20:38;26.10;99.90
1594;DHT22;790;47.000;16.084;2023-09-19T14:23:06;26.10;99.90
1594;DHT22;790;47.000;16.084;2023-09-19T14:25:34;26.00;99.90
1594;DHT22;790;47.000;16.084;2023-09-19T14:28:02;26.00;99.90
1594;DHT22;790;47.000;16.084;2023-09-19T14:30:29;25.90;99.90
1594;DHT22;790;47.000;16.084;2023-09-19T14:32:57;26.00;99.90
1594;DHT22;790;47.000;16.084;2023-09-19T14:35:25;26.00;99.90
1594;DHT22;790;47.000;16.084;2023-09-19T14:37:53;26.00;99.90
1594;DHT22;790;47.000;16.084;2023-09-19T14:40:20;26.10;99.90
1594;DHT22;790;47.000;16.084;2023-09-19T14:42:48;26.10;99.90
1594;DHT22;790;47.000;16.084;2023-09-19T14:45:15;26.20;99.90
1594;DHT22;790;47.000;16.084;2023-09-19T14:47:45;26.20;99.90
1594;DHT22;790;47.000;16.084;2023-09-19T14:50:14;26.20;99.90
1594;DHT22;790;47.000;16.084;2023-09-19T14:52:41;26.20;99.90
1594;DHT22;790;47.000;16.084;2023-09-19T14:55:08;26.20;99.90
1594;DHT22;790;47.000;16.084;2023-09-19T14:57:40;26.10;99.90
1594;DHT22;790;47.000;16.084;2023-09-19T15:00:11;26.10;99.90
1594;DHT22;790;47.000;16.084;2023-09-19T15:02:38;26.00;99.90
1594;DHT22;790;47.000;16.084;2023-09-19T15:05:06;26.00;99.90
1594;DHT22;790;47.000;16.084;2023-09-19T15:07:36;26.00;99.90
1594;DHT22;790;47.000;16.084;2023-09-19T15:10:04;25.80;99.90
1594;DHT22;790;47.000;16.084;2023-09-19T15:12:32;25.70;99.90
1594;DHT22;790;47.000;16.084;2023-09-19T15:15:01;25.60;99.90
1594;DHT22;790;47.000;16.084;2023-09-19T15:17:28;25.50;99.90
1594;DHT22;790;47.000;16.084;2023-09-19T15:19:55;25.40;99.90
1594;DHT22;790;47.000;16.084;2023-09-19T15:22:22;25.20;99.90
1594;DHT22;790;47.000;16.084;2023-09-19T15:24:52;25.10;99.90
1594;DHT22;790;47.000;16.084;2023-09-19T15:27:19;24.90;99.90
1594;DHT22;790;47.000;16.084;2023-09-19T15:29:46;24.80;99.90
1594;DHT22;790;47.000;16.084;2023-09-19T15:32:13;24.70;99.90
1594;DHT22;790;47.000;16.084;2023-09-19T15:34:40;24.60;99.90
1594;DHT22;790;47.000;16.084;2023-09-19T15:37:07;24.40;99.90
1594;DHT22;790;47.000;16.084;2023-09-19T15:39:34;24.30;99.90
1594;DHT22;790;47.000;16.084;2023-09-19T15:42:04;24.10;99.90
1594;DHT22;790;47.000;16.084;2023-09-19T15:44:32;23.90;99.90
1594;DHT22;790;47.000;16.084;2023-09-19T15:46:59;23.80;99.90
1594;DHT22;790;47.000;16.084;2023-09-19T15:49:26;23.60;99.90
1594;DHT22;790;47.000;16.084;2023-09-19T15:51:53;23.60;99.90
1594;DHT22;790;47.000;16.084;2023-09-19T15:54:21;23.50;99.90
1594;DHT22;790;47.000;16.084;2023-09-19T15:56:48;23.30;99.90
1594;DHT22;790;47.000;16.084;2023-09-19T15:59:18;23.10;99.90
1594;DHT22;790;47.000;16.084;2023-09-19T16:01:45;23.00;99.90
1594;DHT22;790;47.000;16.084;2023-09-19T16:04:12;22.90;99.90
1594;DHT22;790;47.000;16.084;2023-09-19T16:06:40;22.90;99.90
1594;DHT22;790;47.000;16.084;2023-09-19T16:09:08;22.70;99.90
1594;DHT22;790;47.000;16.084;2023-09-19T16:11:35;22.70;99.90
1594;DHT22;790;47.000;16.084;2023-09-19T16:14:03;22.60;99.90
1594;DHT22;790;47.000;16.084;2023-09-19T16:16:33;22.50;99.90
1594;DHT22;790;47.000;16.084;2023-09-19T16:19:02;22.40;99.90
1594;DHT22;790;47.000;16.084;2023-09-19T16:21:32;22.30;99.90
1594;DHT22;790;47.000;16.084;2023-09-19T16:24:00;22.20;99.90
1594;DHT22;790;47.000;16.084;2023-09-19T16:26:28;22.20;99.90
1594;DHT22;790;47.000;16.084;2023-09-19T16:28:58;22.10;99.90